createdAt,value
2019-05-12T00:02:21.559Z,93.60
2019-05-12T00:04:48.975Z,94.10
2019-05-12T00:07:18.066Z,93.80
2019-05-12T00:09:47.441Z,94.40
2019-05-12T00:12:15.087Z,94.50
2019-05-12T00:14:42.428Z,94.30
2019-05-12T00:17:09.780Z,94.30
2019-05-12T00:19:37.759Z,94.00
2019-05-12T00:22:07.543Z,94.10
2019-05-12T00:24:35.118Z,94.80
2019-05-12T00:27:05.012Z,94.80
2019-05-12T00:29:32.527Z,94.60
2019-05-12T00:31:59.841Z,94.90
2019-05-12T00:34:28.840Z,95.10
2019-05-12T00:36:57.748Z,94.90
2019-05-12T00:39:25.023Z,95.30
2019-05-12T00:41:52.751Z,95.60
2019-05-12T00:44:20.238Z,95.20
2019-05-12T00:46:48.796Z,95.30
2019-05-12T00:49:18.468Z,95.60
2019-05-12T00:51:45.795Z,95.50
2019-05-12T00:54:13.285Z,95.50
2019-05-12T00:56:40.552Z,95.80
2019-05-12T00:59:08.358Z,95.60
2019-05-12T01:01:38.095Z,95.70
2019-05-12T01:04:05.561Z,95.70
2019-05-12T01:06:33.063Z,95.70
2019-05-12T01:09:00.470Z,95.60
2019-05-12T01:11:29.238Z,95.50
2019-05-12T01:13:58.267Z,95.80
2019-05-12T01:16:25.607Z,95.70
2019-05-12T01:18:53.014Z,95.60
2019-05-12T01:21:20.441Z,95.40
2019-05-12T01:23:56.573Z,95.70
2019-05-12T01:26:17.906Z,95.60
2019-05-12T01:28:45.628Z,95.60
2019-05-12T01:31:14.675Z,95.40
2019-05-12T01:33:42.520Z,95.50
2019-05-12T01:36:09.870Z,95.80
2019-05-12T01:38:37.963Z,95.80
2019-05-12T01:41:05.408Z,96.10
2019-05-12T01:43:32.864Z,96.00
2019-05-12T01:46:00.594Z,95.70
2019-05-12T01:48:28.725Z,95.80
2019-05-12T01:50:57.930Z,95.50
2019-05-12T01:53:25.531Z,95.90
2019-05-12T01:55:52.961Z,95.90
2019-05-12T01:58:20.184Z,96.00
2019-05-12T02:00:48.280Z,95.80
2019-05-12T02:03:17.693Z,95.80
2019-05-12T02:05:48.567Z,96.30
2019-05-12T02:08:22.180Z,96.00
2019-05-12T02:10:52.708Z,95.90
2019-05-12T02:13:20.175Z,95.70
2019-05-12T02:15:48.600Z,96.10
2019-05-12T02:18:17.796Z,95.80
2019-05-12T02:20:45.294Z,95.80
2019-05-12T02:23:12.669Z,96.30
2019-05-12T02:25:40.411Z,95.90
2019-05-12T02:28:09.122Z,95.70
2019-05-12T02:30:40.737Z,96.00
2019-05-12T02:33:06.259Z,96.30
2019-05-12T02:35:35.427Z,96.30
2019-05-12T02:38:04.821Z,96.00
2019-05-12T02:40:34.769Z,96.10
2019-05-12T02:43:01.336Z,96.40
2019-05-12T02:45:28.551Z,96.50
2019-05-12T02:47:55.892Z,96.00
2019-05-12T02:50:35.260Z,95.80
2019-05-12T02:53:05.381Z,95.90
2019-05-12T02:55:34.824Z,95.90
2019-05-12T02:58:05.777Z,95.80
2019-05-12T03:00:35.140Z,95.90
2019-05-12T03:03:05.400Z,95.30
2019-05-12T03:05:35.500Z,95.70
2019-05-12T03:08:04.866Z,95.70
2019-05-12T03:10:35.396Z,95.90
2019-05-12T03:13:04.402Z,95.70
2019-05-12T03:15:35.843Z,95.30
2019-05-12T03:18:01.176Z,95.30
2019-05-12T03:20:28.850Z,95.00
2019-05-12T03:22:55.999Z,95.10
2019-05-12T03:25:26.117Z,95.00
2019-05-12T03:27:54.566Z,94.90
2019-05-12T03:30:26.853Z,95.10
2019-05-12T03:32:51.026Z,94.60
2019-05-12T03:35:18.477Z,94.90
2019-05-12T03:37:45.749Z,95.10
2019-05-12T03:40:14.507Z,94.90
2019-05-12T03:42:44.499Z,94.70
2019-05-12T03:45:11.101Z,95.20
2019-05-12T03:47:38.356Z,94.70
2019-05-12T03:50:05.869Z,94.50
2019-05-12T03:52:34.975Z,94.80
2019-05-12T03:55:05.386Z,94.80
2019-05-12T03:57:34.261Z,94.80
2019-05-12T04:00:00.822Z,94.70
2019-05-12T04:02:28.283Z,94.80
2019-05-12T04:04:55.658Z,94.80
2019-05-12T04:07:24.328Z,94.50
2019-05-12T04:09:54.542Z,94.40
2019-05-12T04:12:21.484Z,94.20
2019-05-12T04:14:48.739Z,93.90
2019-05-12T04:17:16.094Z,94.60
2019-05-12T04:19:44.768Z,94.20
2019-05-12T04:22:15.163Z,94.50
2019-05-12T04:24:44.504Z,93.70
2019-05-12T04:27:10.810Z,94.10
2019-05-12T04:29:38.154Z,94.10
2019-05-12T04:32:05.637Z,94.20
2019-05-12T04:34:34.344Z,94.20
2019-05-12T04:37:04.493Z,93.70
2019-05-12T04:39:30.652Z,93.90
2019-05-12T04:41:58.124Z,93.80
2019-05-12T04:44:25.816Z,94.00
2019-05-12T04:46:55.371Z,93.90
2019-05-12T04:49:24.945Z,94.00
2019-05-12T04:51:54.368Z,93.40
2019-05-12T04:54:20.585Z,93.70
2019-05-12T04:56:47.792Z,93.90
2019-05-12T04:59:16.023Z,93.90
2019-05-12T05:01:45.406Z,93.90
2019-05-12T05:04:15.481Z,94.30
2019-05-12T05:06:44.796Z,93.80
2019-05-12T05:09:14.201Z,93.60
2019-05-12T05:11:40.701Z,93.50
2019-05-12T05:14:08.165Z,93.30
2019-05-12T05:16:35.389Z,93.10
2019-05-12T05:19:03.645Z,93.40
2019-05-12T05:21:31.383Z,93.00
2019-05-12T05:23:58.954Z,93.30
2019-05-12T05:26:28.207Z,93.40
2019-05-12T05:28:55.476Z,93.20
2019-05-12T05:31:24.431Z,93.80
2019-05-12T05:33:53.676Z,93.40
2019-05-12T05:36:21.259Z,92.60
2019-05-12T05:38:51.068Z,92.80
2019-05-12T05:41:17.972Z,92.40
2019-05-12T05:43:48.677Z,92.60
2019-05-12T05:46:14.695Z,93.00
2019-05-12T05:48:43.893Z,92.90
2019-05-12T05:51:13.445Z,93.40
2019-05-12T05:53:40.442Z,93.40
2019-05-12T05:56:07.785Z,93.20
2019-05-12T05:58:35.223Z,93.50
2019-05-12T06:01:07.661Z,92.80
2019-05-12T06:03:33.879Z,92.60
2019-05-12T06:06:07.724Z,92.20
2019-05-12T06:08:30.689Z,92.10
2019-05-12T06:10:58.007Z,92.20
2019-05-12T06:13:27.314Z,91.60
2019-05-12T06:15:54.547Z,91.60
2019-05-12T06:18:23.970Z,91.60
2019-05-12T06:20:51.002Z,91.50
2019-05-12T06:23:18.477Z,91.30
2019-05-12T06:25:51.408Z,90.90
2019-05-12T06:28:16.561Z,90.90
2019-05-12T06:30:47.109Z,91.40
2019-05-12T06:33:14.404Z,91.50
2019-05-12T06:35:49.216Z,91.80
2019-05-12T06:38:16.611Z,91.10
2019-05-12T06:40:45.425Z,90.90
2019-05-12T06:43:14.117Z,91.20
2019-05-12T06:45:43.303Z,91.60
2019-05-12T06:48:11.067Z,91.50
2019-05-12T06:50:39.282Z,91.40
2019-05-12T06:53:06.987Z,91.70
2019-05-12T06:55:38.991Z,91.40
2019-05-12T06:58:04.742Z,91.20
2019-05-12T07:00:34.726Z,91.30
2019-05-12T07:03:03.871Z,91.50
2019-05-12T07:05:33.719Z,90.90
2019-05-12T07:08:00.630Z,90.30
2019-05-12T07:10:46.641Z,90.60
2019-05-12T07:13:01.816Z,90.10
2019-05-12T07:15:29.458Z,90.40
2019-05-12T07:18:04.279Z,90.10
2019-05-12T07:20:35.366Z,90.60
2019-05-12T07:23:03.544Z,90.80
2019-05-12T07:25:33.355Z,89.60
2019-05-12T07:28:01.483Z,90.30
2019-05-12T07:30:32.734Z,90.50
2019-05-12T07:33:01.230Z,89.40
2019-05-12T07:35:33.655Z,88.50
2019-05-12T07:38:01.360Z,89.60
2019-05-12T07:40:32.318Z,88.90
2019-05-12T07:43:00.082Z,88.40
2019-05-12T07:45:27.385Z,89.10
2019-05-12T07:47:59.520Z,89.00
2019-05-12T07:50:27.046Z,88.50
2019-05-12T07:52:54.658Z,88.30
2019-05-12T07:55:23.682Z,88.10
2019-05-12T07:57:55.993Z,87.50
2019-05-12T08:00:22.889Z,87.40
2019-05-12T08:02:49.567Z,87.90
2019-05-12T08:05:20.166Z,88.10
2019-05-12T08:07:46.327Z,87.00
2019-05-12T08:10:18.480Z,85.90
2019-05-12T08:12:44.491Z,86.80
2019-05-12T08:15:14.001Z,86.40
2019-05-12T08:17:43.876Z,86.00
2019-05-12T08:20:13.313Z,86.70
2019-05-12T08:22:40.928Z,86.00
2019-05-12T08:25:08.544Z,85.20
2019-05-12T08:27:39.262Z,83.60
2019-05-12T08:30:06.768Z,83.60
2019-05-12T08:32:34.024Z,83.30
2019-05-12T08:35:01.554Z,82.80
2019-05-12T08:37:29.024Z,83.20
2019-05-12T08:40:03.228Z,82.70
2019-05-12T08:42:26.027Z,82.30
2019-05-12T08:44:54.242Z,83.10
2019-05-12T08:47:23.908Z,83.00
2019-05-12T08:49:56.064Z,83.10
2019-05-12T08:52:20.314Z,83.20
2019-05-12T08:54:49.354Z,83.20
2019-05-12T08:57:17.107Z,82.80
2019-05-12T08:59:44.262Z,81.50
2019-05-12T09:02:13.727Z,81.40
2019-05-12T09:04:44.297Z,80.90
2019-05-12T09:07:13.669Z,81.10
2019-05-12T09:09:40.524Z,81.60
2019-05-12T09:12:08.601Z,81.40
2019-05-12T09:14:41.317Z,80.70
2019-05-12T09:17:07.232Z,81.20
2019-05-12T09:19:34.565Z,79.40
2019-05-12T09:22:05.467Z,79.80
2019-05-12T09:24:30.807Z,78.80
2019-05-12T09:26:58.899Z,78.40
2019-05-12T09:29:27.479Z,79.10
2019-05-12T09:31:59.290Z,79.10
2019-05-12T09:34:24.469Z,79.60
2019-05-12T09:36:59.355Z,79.50
2019-05-12T09:39:20.953Z,79.60
2019-05-12T09:41:52.429Z,80.20
2019-05-12T09:44:20.359Z,77.60
2019-05-12T09:46:47.007Z,78.70
2019-05-12T09:49:14.389Z,78.90
2019-05-12T09:51:45.717Z,78.90
2019-05-12T09:54:13.382Z,78.10
2019-05-12T09:56:41.301Z,78.20
2019-05-12T09:59:19.013Z,78.80
2019-05-12T10:01:39.744Z,78.70
2019-05-12T10:04:10.375Z,79.10
2019-05-12T10:06:38.337Z,78.80
2019-05-12T10:09:08.946Z,78.40
2019-05-12T10:11:35.050Z,79.30
2019-05-12T10:14:06.484Z,78.20
2019-05-12T10:16:33.385Z,78.50
2019-05-12T10:19:00.906Z,78.00
2019-05-12T10:21:28.141Z,76.50
2019-05-12T10:24:00.167Z,78.00
2019-05-12T10:26:25.213Z,76.90
2019-05-12T10:28:58.058Z,75.80
2019-05-12T10:31:24.106Z,77.20
2019-05-12T10:33:55.081Z,77.50
2019-05-12T10:36:20.445Z,76.80
2019-05-12T10:38:48.491Z,77.20
2019-05-12T10:41:15.737Z,78.10
2019-05-12T10:43:43.394Z,77.60
2019-05-12T10:46:13.168Z,77.90
2019-05-12T10:48:40.674Z,77.10
2019-05-12T10:51:08.003Z,77.60
2019-05-12T10:53:35.249Z,76.70
2019-05-12T10:56:02.508Z,76.30
2019-05-12T10:58:29.889Z,77.50
2019-05-12T11:01:04.275Z,76.50
2019-05-12T11:03:28.999Z,76.20
2019-05-12T11:06:02.417Z,77.10
2019-05-12T11:08:25.637Z,76.80
2019-05-12T11:11:01.122Z,76.90
2019-05-12T11:13:26.084Z,77.10
2019-05-12T11:15:54.512Z,78.60
2019-05-12T11:18:26.052Z,77.40
2019-05-12T11:20:54.174Z,77.30
2019-05-12T11:23:24.238Z,77.10
2019-05-12T11:25:53.190Z,76.80
2019-05-12T11:28:20.765Z,77.00
2019-05-12T11:30:48.582Z,77.00
2019-05-12T11:33:15.921Z,77.60
2019-05-12T11:35:43.610Z,75.90
2019-05-12T11:38:13.242Z,77.10
2019-05-12T11:40:40.194Z,76.90
2019-05-12T11:43:08.183Z,76.80
2019-05-12T11:45:36.341Z,76.80
2019-05-12T11:48:09.720Z,74.70
2019-05-12T11:50:33.549Z,74.80
2019-05-12T11:53:01.108Z,75.10
2019-05-12T11:55:31.620Z,75.30
2019-05-12T11:58:00.267Z,75.20
2019-05-12T12:00:29.620Z,76.60
2019-05-12T12:02:57.020Z,75.30
2019-05-12T12:05:24.403Z,75.10
2019-05-12T12:07:53.377Z,75.60
2019-05-12T12:10:23.422Z,75.10
2019-05-12T12:12:51.534Z,75.30
2019-05-12T12:15:20.509Z,75.10
2019-05-12T12:17:48.258Z,74.70
2019-05-12T12:20:22.054Z,75.10
2019-05-12T12:22:48.322Z,73.90
2019-05-12T12:25:24.304Z,73.80
2019-05-12T12:27:53.958Z,73.70
2019-05-12T12:30:23.464Z,73.50
2019-05-12T12:32:56.890Z,73.20
2019-05-12T12:35:23.201Z,73.60
2019-05-12T12:37:50.756Z,74.10
2019-05-12T12:40:18.205Z,73.50
2019-05-12T12:42:47.179Z,75.60
2019-05-12T12:45:30.444Z,73.50
2019-05-12T12:47:57.821Z,73.70
2019-05-12T12:50:30.219Z,74.40
2019-05-12T12:52:55.577Z,73.50
2019-05-12T12:55:23.479Z,73.50
2019-05-12T12:57:51.120Z,74.10
2019-05-12T13:00:29.806Z,73.60
2019-05-12T13:02:49.425Z,74.50
2019-05-12T13:05:16.829Z,73.30
2019-05-12T13:07:44.236Z,73.80
2019-05-12T13:10:14.256Z,73.70
2019-05-12T13:12:43.769Z,73.90
2019-05-12T13:15:11.545Z,73.50
2019-05-12T13:17:41.690Z,74.30
2019-05-12T13:20:08.241Z,74.10
2019-05-12T13:22:35.692Z,74.00
2019-05-12T13:25:08.326Z,74.80
2019-05-12T13:27:36.624Z,72.60
2019-05-12T13:30:04.752Z,72.10
2019-05-12T13:32:33.151Z,71.80
2019-05-12T13:35:00.420Z,72.30
2019-05-12T13:37:27.925Z,73.50
2019-05-12T13:39:59.489Z,73.50
2019-05-12T13:42:25.346Z,72.60
2019-05-12T13:44:52.873Z,73.20
2019-05-12T13:47:20.136Z,72.40
2019-05-12T13:49:47.689Z,71.60
2019-05-12T13:52:14.995Z,72.00
2019-05-12T13:54:43.693Z,73.10
2019-05-12T13:57:13.325Z,73.30
2019-05-12T13:59:40.511Z,72.30
2019-05-12T14:02:07.956Z,72.10
2019-05-12T14:04:35.373Z,71.80
2019-05-12T14:07:03.971Z,71.80
2019-05-12T14:09:31.636Z,70.40
2019-05-12T14:11:58.910Z,68.60
2019-05-12T14:14:27.565Z,70.00
2019-05-12T14:16:59.405Z,70.00
2019-05-12T14:19:24.208Z,71.90
2019-05-12T14:21:54.131Z,71.30
2019-05-12T14:24:23.182Z,71.50
2019-05-12T14:26:50.180Z,71.60
2019-05-12T14:29:20.456Z,71.80
2019-05-12T14:31:55.006Z,70.50
2019-05-12T14:34:20.815Z,69.50
2019-05-12T14:36:46.610Z,68.00
2019-05-12T14:39:14.119Z,67.70
2019-05-12T14:41:44.337Z,66.30
2019-05-12T14:44:13.540Z,66.60
2019-05-12T14:46:45.059Z,68.80
2019-05-12T14:49:09.123Z,68.40
2019-05-12T14:51:36.456Z,69.00
2019-05-12T14:54:04.097Z,68.20
2019-05-12T14:56:33.759Z,67.70
2019-05-12T14:59:03.372Z,65.80
2019-05-12T15:01:48.430Z,66.30
2019-05-12T15:03:59.871Z,66.30
2019-05-12T15:06:29.511Z,65.10
2019-05-12T15:08:56.328Z,66.30
2019-05-12T15:11:23.847Z,66.30
2019-05-12T15:13:51.254Z,66.10
2019-05-12T15:16:18.435Z,65.50
2019-05-12T15:18:48.975Z,66.50
2019-05-12T15:21:16.068Z,64.90
2019-05-12T15:23:44.185Z,64.50
2019-05-12T15:26:15.752Z,63.10
2019-05-12T15:28:43.380Z,63.40
2019-05-12T15:31:11.114Z,63.90
2019-05-12T15:33:38.369Z,63.50
2019-05-12T15:36:05.728Z,63.00
2019-05-12T15:38:34.249Z,63.00
2019-05-12T15:41:04.042Z,62.70
2019-05-12T15:43:35.742Z,63.80
2019-05-12T15:46:00.077Z,63.50
2019-05-12T15:48:27.653Z,63.80
2019-05-12T15:50:59.392Z,64.50
2019-05-12T15:53:26.890Z,63.60
2019-05-12T15:55:54.351Z,61.60
2019-05-12T15:58:21.636Z,61.70
2019-05-12T16:00:48.823Z,62.20
2019-05-12T16:03:16.236Z,61.90
2019-05-12T16:05:44.484Z,60.00
2019-05-12T16:08:14.092Z,60.30
2019-05-12T16:10:40.982Z,58.30
2019-05-12T16:13:08.668Z,59.40
2019-05-12T16:15:36.516Z,60.10
2019-05-12T16:18:08.163Z,59.60
2019-05-12T16:20:33.539Z,59.40
2019-05-12T16:23:01.183Z,59.50
2019-05-12T16:25:30.607Z,59.70
2019-05-12T16:27:57.798Z,59.90
2019-05-12T16:30:25.891Z,60.60
2019-05-12T16:32:55.076Z,60.80
2019-05-12T16:35:25.979Z,60.80
2019-05-12T16:37:53.306Z,60.00
2019-05-12T16:40:20.867Z,60.60
2019-05-12T16:42:56.150Z,61.30
2019-05-12T16:45:20.026Z,61.20
2019-05-12T16:47:47.854Z,61.60
2019-05-12T16:50:24.022Z,60.70
2019-05-12T16:52:45.430Z,60.40
2019-05-12T16:55:13.285Z,60.90
2019-05-12T16:57:50.549Z,61.40
2019-05-12T17:00:10.323Z,60.90
2019-05-12T17:02:41.876Z,62.30
2019-05-12T17:05:15.536Z,61.30
2019-05-12T17:07:37.548Z,60.60
2019-05-12T17:10:11.721Z,62.60
2019-05-12T17:12:37.081Z,61.40
2019-05-12T17:15:05.913Z,61.90
2019-05-12T17:17:33.824Z,61.80
2019-05-12T17:20:01.255Z,60.90
2019-05-12T17:22:28.661Z,62.00
2019-05-12T17:24:55.855Z,61.50
2019-05-12T17:27:25.131Z,61.10
2019-05-12T17:29:54.138Z,61.10
2019-05-12T17:32:23.549Z,61.30
2019-05-12T17:34:53.165Z,61.50
2019-05-12T17:37:20.079Z,61.60
2019-05-12T17:39:47.637Z,61.90
2019-05-12T17:42:21.690Z,61.80
2019-05-12T17:44:44.162Z,62.30
2019-05-12T17:47:14.756Z,62.10
2019-05-12T17:49:43.406Z,62.00
2019-05-12T17:52:12.996Z,62.00
2019-05-12T17:54:39.176Z,62.50
2019-05-12T17:57:09.657Z,61.50
2019-05-12T17:59:38.131Z,61.70
2019-05-12T18:02:11.412Z,62.00
2019-05-12T18:04:36.794Z,62.50
2019-05-12T18:07:12.497Z,62.40
2019-05-12T18:09:34.167Z,62.10
2019-05-12T18:12:01.654Z,63.10
2019-05-12T18:14:28.922Z,62.50
2019-05-12T18:17:02.448Z,62.40
2019-05-12T18:19:27.763Z,62.80
2019-05-12T18:22:03.387Z,61.70
2019-05-12T18:24:24.287Z,62.70
2019-05-12T18:26:58.678Z,62.50
2019-05-12T18:29:23.711Z,62.10
2019-05-12T18:31:53.429Z,61.70
2019-05-12T18:34:20.760Z,61.70
2019-05-12T18:36:48.955Z,62.20
2019-05-12T18:39:18.075Z,62.30
2019-05-12T18:41:45.321Z,61.80
2019-05-12T18:44:22.351Z,62.70
2019-05-12T18:46:46.631Z,62.30
2019-05-12T18:49:12.769Z,63.00
2019-05-12T18:51:43.334Z,62.50
2019-05-12T18:54:11.974Z,64.60
2019-05-12T18:56:39.911Z,62.50
2019-05-12T18:59:11.548Z,63.10
2019-05-12T19:01:36.762Z,63.60
2019-05-12T19:04:04.078Z,64.00
2019-05-12T19:06:33.682Z,63.70
2019-05-12T19:09:00.933Z,63.40
2019-05-12T19:11:37.310Z,64.00
2019-05-12T19:13:57.686Z,64.00
2019-05-12T19:16:25.206Z,64.40
2019-05-12T19:18:55.399Z,64.70
2019-05-12T19:21:23.676Z,64.70
2019-05-12T19:23:51.197Z,64.20
2019-05-12T19:26:19.047Z,64.30
2019-05-12T19:28:53.113Z,65.00
2019-05-12T19:31:15.365Z,64.30
2019-05-12T19:33:51.625Z,64.70
2019-05-12T19:36:13.618Z,64.90
2019-05-12T19:38:43.714Z,64.70
2019-05-12T19:41:10.471Z,65.10
2019-05-12T19:43:39.275Z,65.20
2019-05-12T19:46:07.069Z,65.10
2019-05-12T19:48:43.026Z,64.90
2019-05-12T19:51:19.939Z,65.30
2019-05-12T19:53:33.320Z,65.10
2019-05-12T19:56:00.678Z,65.30
2019-05-12T19:58:27.962Z,65.90
2019-05-12T20:00:55.384Z,65.80
2019-05-12T20:03:24.152Z,66.70
2019-05-12T20:05:53.813Z,66.40
2019-05-12T20:08:21.105Z,66.00
2019-05-12T20:10:49.589Z,66.60
2019-05-12T20:13:17.337Z,67.00
2019-05-12T20:15:44.843Z,67.60
2019-05-12T20:18:14.471Z,67.20
2019-05-12T20:20:44.416Z,67.30
2019-05-12T20:23:10.695Z,67.70
2019-05-12T20:25:38.089Z,67.20
2019-05-12T20:28:11.088Z,67.50
2019-05-12T20:30:35.004Z,67.90
2019-05-12T20:33:04.480Z,68.30
2019-05-12T20:35:33.802Z,68.00
2019-05-12T20:38:04.041Z,67.50
2019-05-12T20:40:32.273Z,68.20
2019-05-12T20:43:09.349Z,68.90
2019-05-12T20:45:33.095Z,68.90
2019-05-12T20:47:59.526Z,68.50
2019-05-12T20:50:32.949Z,69.00
2019-05-12T20:52:59.061Z,68.60
2019-05-12T20:55:30.172Z,68.70
2019-05-12T20:57:56.981Z,68.80
2019-05-12T21:00:24.499Z,68.60
2019-05-12T21:02:53.742Z,68.90
2019-05-12T21:05:20.981Z,69.30
2019-05-12T21:07:48.315Z,69.10
2019-05-12T21:10:19.922Z,69.70
2019-05-12T21:12:48.947Z,70.10
2019-05-12T21:15:20.320Z,70.00
2019-05-12T21:17:46.827Z,69.80
2019-05-12T21:20:16.566Z,70.00
2019-05-12T21:22:43.627Z,69.90
2019-05-12T21:25:12.813Z,69.80
2019-05-12T21:27:43.627Z,70.60
2019-05-12T21:30:11.921Z,69.90
2019-05-12T21:32:39.099Z,69.90
2019-05-12T21:35:18.463Z,70.20
2019-05-12T21:37:37.078Z,70.10
2019-05-12T21:40:06.183Z,70.60
2019-05-12T21:42:34.407Z,70.90
2019-05-12T21:45:04.268Z,70.80
2019-05-12T21:47:36.357Z,71.60
2019-05-12T21:50:03.511Z,70.80
2019-05-12T21:52:37.262Z,71.00
2019-05-12T21:55:00.387Z,70.70
2019-05-12T21:57:31.022Z,71.10
2019-05-12T21:59:57.134Z,71.00
2019-05-12T22:02:29.009Z,70.90
2019-05-12T22:04:56.033Z,71.10
2019-05-12T22:07:23.908Z,70.90
2019-05-12T22:09:53.701Z,71.30
2019-05-12T22:12:23.277Z,71.50
2019-05-12T22:14:49.955Z,71.70
2019-05-12T22:17:17.382Z,72.10
2019-05-12T22:19:44.742Z,72.10
2019-05-12T22:22:13.603Z,72.00
2019-05-12T22:24:41.013Z,72.10
2019-05-12T22:27:16.023Z,72.20
2019-05-12T22:29:38.085Z,73.20
2019-05-12T22:32:05.548Z,72.40
2019-05-12T22:34:37.345Z,72.20
2019-05-12T22:37:03.943Z,73.10
2019-05-12T22:39:33.782Z,72.40
2019-05-12T22:42:00.779Z,72.70
2019-05-12T22:44:28.017Z,72.90
2019-05-12T22:46:55.577Z,72.70
2019-05-12T22:49:23.039Z,72.60
2019-05-12T22:51:54.709Z,73.30
2019-05-12T22:54:19.906Z,73.60
2019-05-12T22:56:49.708Z,72.50
2019-05-12T22:59:16.475Z,72.90
2019-05-12T23:01:46.260Z,72.90
2019-05-12T23:04:14.235Z,73.20
2019-05-12T23:06:46.384Z,73.50
2019-05-12T23:09:11.436Z,73.00
2019-05-12T23:11:38.789Z,73.70
2019-05-12T23:14:06.100Z,73.60
2019-05-12T23:16:33.690Z,73.20
2019-05-12T23:19:01.318Z,73.20
2019-05-12T23:21:30.339Z,73.50
2019-05-12T23:24:00.616Z,73.60
2019-05-12T23:26:27.234Z,74.00
2019-05-12T23:28:54.713Z,74.10
2019-05-12T23:31:26.050Z,73.90
2019-05-12T23:33:51.246Z,73.90
2019-05-12T23:36:19.803Z,74.10
2019-05-12T23:38:54.400Z,74.40
2019-05-12T23:41:16.662Z,74.30
2019-05-12T23:43:44.287Z,74.10
2019-05-12T23:46:11.511Z,74.90
2019-05-12T23:48:38.698Z,75.40
2019-05-12T23:51:06.234Z,74.60
2019-05-12T23:53:34.012Z,74.80
2019-05-12T23:56:03.677Z,75.00
2019-05-12T23:58:30.928Z,74.90
